Teneimaru No.44 — JD4155 — position and weather

sailwx.info

Track history (hours):
 
Tides and Currents Weather Stations Pressure Air Temp Water Temp Dewpoint Dewpoint Depression Visibility Wind Speed Wind Dir Waves Ship Positions

Teneimaru No.44

Last reported at 2018-Jun-21 06:40 UTC. Time now 2018-Jun-21 09:57 UTC.
Position N 34°25' E 134°12'.

Length 70 m; draft 3 m.

Type: Cargo ship. MMSI: 431009147.

Date/timePositionNaut miles runAvg speedWind from/ knotsBaromVisibWave heightAir tempDewpointWater temp
2018-Jun-21 06:40N 34°25' E 134°12'212.6
2018-Jun-21 06:30N 34°24' E 134°15'612.5
2018-Jun-21 06:00N 34°25' E 134°22'712.5
2018-Jun-21 05:29N 34°28' E 134°30'612.5
2018-Jun-21 05:00N 34°30' E 134°36'612.4
2018-Jun-21 04:30N 34°32' E 134°43'612.5
2018-Jun-21 04:00N 34°35' E 134°50'612.3
2018-Jun-21 03:31N 34°37' E 134°57'510.2
2018-Jun-21 03:00N 34°36' E 135°03'611.2
2018-Jun-21 02:30N 34°35' E 135°10'611.4
2018-Jun-21 02:00N 34°33' E 135°17'611.1
2018-Jun-21 01:30N 34°32' E 135°23'1 2.1
2018-Jun-21 00:52N 34°30' E 135°23'0 0.0
2018-Jun-20 23:23N 34°30' E 135°23'0 0.1
2018-Jun-20 22:30N 34°30' E 135°23'0 0.0
2018-Jun-20 21:59N 34°30' E 135°23'0 0.2
2018-Jun-20 21:28N 34°30' E 135°24'0 0.0
2018-Jun-20 20:50N 34°30' E 135°24'2 4.8
2018-Jun-20 20:30N 34°32' E 135°23'510.2
2018-Jun-20 20:00N 34°33' E 135°17'510.6
2018-Jun-20 19:30N 34°34' E 135°11'510.6
2018-Jun-20 19:00N 34°35' E 135°04'5 8.7
2018-Jun-20 18:29N 34°37' E 134°59'4 9.0
2018-Jun-20 18:00N 34°37' E 134°54'5 9.0
2018-Jun-20 17:27N 34°38' E 134°48'5 9.8
2018-Jun-20 17:00N 34°38' E 134°43'9 0.7
2018-Jun-20 03:49N 34°40' E 134°32'412.0
2018-Jun-20 03:30N 34°39' E 134°36'611.7
2018-Jun-20 03:00N 34°38' E 134°43'611.7
2018-Jun-20 02:30N 34°38' E 134°50'611.8
2018-Jun-20 02:00N 34°38' E 134°57'2 0.6
2018-Jun-19 23:07N 34°38' E 134°59'1 4.6
2018-Jun-19 23:00N 34°38' E 134°59'711.5
2018-Jun-19 22:25N 34°35' E 134°52'511.6
2018-Jun-19 22:00N 34°32' E 134°47'510.8
2018-Jun-19 21:31N 34°30' E 134°41'510.9
2018-Jun-19 21:00N 34°28' E 134°35'11 0.3
2018-Jun-18 04:20N 34°25' E 134°21'412.0
2018-Jun-18 03:59N 34°27' E 134°26'612.0
2018-Jun-18 03:30N 34°29' E 134°33'612.4
2018-Jun-18 03:00N 34°31' E 134°40'713.1
2018-Jun-18 02:29N 34°34' E 134°47'713.7
2018-Jun-18 02:00N 34°36' E 134°55'612.6
2018-Jun-18 01:30N 34°37' E 135°02'612.8
2018-Jun-18 01:00N 34°36' E 135°10'612.2
2018-Jun-18 00:30N 34°37' E 135°17'611.9
2018-Jun-17 23:59N 34°36' E 135°25'2 1.2
2018-Jun-17 22:24N 34°34' E 135°27'3 6.8
2018-Jun-17 22:00N 34°36' E 135°24'510.1
2018-Jun-17 21:30N 34°37' E 135°18'510.2
2018-Jun-17 21:00N 34°38' E 135°12'2 4.8
2018-Jun-17 20:30N 34°39' E 135°10'0 0.0
2018-Jun-17 20:00N 34°39' E 135°10'0 0.1
2018-Jun-17 19:30N 34°39' E 135°10'3 6.3
2018-Jun-17 19:00N 34°36' E 135°08'4 8.2
2018-Jun-17 18:30N 34°36' E 135°03'610.7
2018-Jun-17 17:57N 34°37' E 134°56'510.9
2018-Jun-17 17:29N 34°38' E 134°50'510.5
2018-Jun-17 17:00N 34°38' E 134°43'610.4
2018-Jun-17 16:27N 34°39' E 134°37'  
2018-Jun-13 09:12N 34°25' E 134°19'312.0
2018-Jun-13 08:57N 34°26' E 134°23'611.9
2018-Jun-13 08:29N 34°28' E 134°29'511.6
2018-Jun-13 08:01N 34°30' E 134°36'611.7
2018-Jun-13 07:31N 34°32' E 134°42'611.3
2018-Jun-13 07:00N 34°34' E 134°49'610.5
2018-Jun-13 06:27N 34°36' E 134°55'5 9.2
2018-Jun-13 05:54N 34°37' E 135°01'3 7.2
2018-Jun-13 05:30N 34°36' E 135°04'5 9.0
2018-Jun-13 05:00N 34°35' E 135°09'510.5
2018-Jun-13 04:31N 34°33' E 135°15'610.9
2018-Jun-13 03:57N 34°32' E 135°23'2 4.2
2018-Jun-13 03:31N 34°30' E 135°23'0 0.0
2018-Jun-13 03:01N 34°30' E 135°23'0 0.0
2018-Jun-13 02:30N 34°30' E 135°23'0 0.0
2018-Jun-13 02:00N 34°30' E 135°23'0 0.0
2018-Jun-13 01:31N 34°30' E 135°23'0 0.0
2018-Jun-13 01:01N 34°30' E 135°23'0 0.0
2018-Jun-13 00:31N 34°30' E 135°23'0 0.0
2018-Jun-13 00:01N 34°30' E 135°23'0 0.0
2018-Jun-12 23:31N 34°30' E 135°23'0 0.1
2018-Jun-12 23:00N 34°30' E 135°23'0 0.0
2018-Jun-12 22:29N 34°30' E 135°23'0 0.0
2018-Jun-12 22:00N 34°30' E 135°23'0 0.0
2018-Jun-12 21:30N 34°30' E 135°23'0 0.0
2018-Jun-12 20:56N 34°30' E 135°23'0 0.1
2018-Jun-12 19:59N 34°30' E 135°23'2 5.2
2018-Jun-12 19:30N 34°32' E 135°21'510.0
2018-Jun-12 19:01N 34°33' E 135°16'510.5
2018-Jun-12 18:30N 34°34' E 135°09'712.7
2018-Jun-12 17:59N 34°37' E 135°02'1012.0
2018-Jun-12 17:10N 34°34' E 134°50'211.7
2018-Jun-12 16:59N 34°33' E 134°48'510.9
2018-Jun-12 16:28N 34°31' E 134°42'510.8
2018-Jun-12 16:00N 34°29' E 134°36'  
Track history (hours):
 
Tides and Currents Weather Stations Pressure Air Temp Water Temp Dewpoint Dewpoint Depression Visibility Wind Speed Wind Dir Waves Ship Positions

Teneimaru No.44

Last reported at 2018-Jun-21 06:40 UTC. Time now 2018-Jun-21 09:57 UTC.
Position N 34°25' E 134°12'.

Length 70 m; draft 3 m.

Type: Cargo ship. MMSI: 431009147.

Date/timePositionNaut miles runAvg speedWind from/ knotsBaromVisibWave heightAir tempDewpointWater temp
2018-Jun-21 06:40N 34°25' E 134°12'212.6
2018-Jun-21 06:30N 34°24' E 134°15'612.5
2018-Jun-21 06:00N 34°25' E 134°22'712.5
2018-Jun-21 05:29N 34°28' E 134°30'612.5
2018-Jun-21 05:00N 34°30' E 134°36'612.4
2018-Jun-21 04:30N 34°32' E 134°43'612.5
2018-Jun-21 04:00N 34°35' E 134°50'612.3
2018-Jun-21 03:31N 34°37' E 134°57'510.2
2018-Jun-21 03:00N 34°36' E 135°03'611.2
2018-Jun-21 02:30N 34°35' E 135°10'611.4
2018-Jun-21 02:00N 34°33' E 135°17'611.1
2018-Jun-21 01:30N 34°32' E 135°23'1 2.1
2018-Jun-21 00:52N 34°30' E 135°23'0 0.0
2018-Jun-20 23:23N 34°30' E 135°23'0 0.1
2018-Jun-20 22:30N 34°30' E 135°23'0 0.0
2018-Jun-20 21:59N 34°30' E 135°23'0 0.2
2018-Jun-20 21:28N 34°30' E 135°24'0 0.0
2018-Jun-20 20:50N 34°30' E 135°24'2 4.8
2018-Jun-20 20:30N 34°32' E 135°23'510.2
2018-Jun-20 20:00N 34°33' E 135°17'510.6
2018-Jun-20 19:30N 34°34' E 135°11'510.6
2018-Jun-20 19:00N 34°35' E 135°04'5 8.7
2018-Jun-20 18:29N 34°37' E 134°59'4 9.0
2018-Jun-20 18:00N 34°37' E 134°54'5 9.0
2018-Jun-20 17:27N 34°38' E 134°48'5 9.8
2018-Jun-20 17:00N 34°38' E 134°43'9 0.7
2018-Jun-20 03:49N 34°40' E 134°32'412.0
2018-Jun-20 03:30N 34°39' E 134°36'611.7
2018-Jun-20 03:00N 34°38' E 134°43'611.7
2018-Jun-20 02:30N 34°38' E 134°50'611.8
2018-Jun-20 02:00N 34°38' E 134°57'2 0.6
2018-Jun-19 23:07N 34°38' E 134°59'1 4.6
2018-Jun-19 23:00N 34°38' E 134°59'711.5
2018-Jun-19 22:25N 34°35' E 134°52'511.6
2018-Jun-19 22:00N 34°32' E 134°47'510.8
2018-Jun-19 21:31N 34°30' E 134°41'510.9
2018-Jun-19 21:00N 34°28' E 134°35'11 0.3
2018-Jun-18 04:20N 34°25' E 134°21'412.0
2018-Jun-18 03:59N 34°27' E 134°26'612.0
2018-Jun-18 03:30N 34°29' E 134°33'612.4
2018-Jun-18 03:00N 34°31' E 134°40'713.1
2018-Jun-18 02:29N 34°34' E 134°47'713.7
2018-Jun-18 02:00N 34°36' E 134°55'612.6
2018-Jun-18 01:30N 34°37' E 135°02'612.8
2018-Jun-18 01:00N 34°36' E 135°10'612.2
2018-Jun-18 00:30N 34°37' E 135°17'611.9
2018-Jun-17 23:59N 34°36' E 135°25'2 1.2
2018-Jun-17 22:24N 34°34' E 135°27'3 6.8
2018-Jun-17 22:00N 34°36' E 135°24'510.1
2018-Jun-17 21:30N 34°37' E 135°18'510.2
2018-Jun-17 21:00N 34°38' E 135°12'2 4.8
2018-Jun-17 20:30N 34°39' E 135°10'0 0.0
2018-Jun-17 20:00N 34°39' E 135°10'0 0.1
2018-Jun-17 19:30N 34°39' E 135°10'3 6.3
2018-Jun-17 19:00N 34°36' E 135°08'4 8.2
2018-Jun-17 18:30N 34°36' E 135°03'610.7
2018-Jun-17 17:57N 34°37' E 134°56'510.9
2018-Jun-17 17:29N 34°38' E 134°50'510.5
2018-Jun-17 17:00N 34°38' E 134°43'610.4
2018-Jun-17 16:27N 34°39' E 134°37'  
2018-Jun-13 09:12N 34°25' E 134°19'312.0
2018-Jun-13 08:57N 34°26' E 134°23'611.9
2018-Jun-13 08:29N 34°28' E 134°29'511.6
2018-Jun-13 08:01N 34°30' E 134°36'611.7
2018-Jun-13 07:31N 34°32' E 134°42'611.3
2018-Jun-13 07:00N 34°34' E 134°49'610.5
2018-Jun-13 06:27N 34°36' E 134°55'5 9.2
2018-Jun-13 05:54N 34°37' E 135°01'3 7.2
2018-Jun-13 05:30N 34°36' E 135°04'5 9.0
2018-Jun-13 05:00N 34°35' E 135°09'510.5
2018-Jun-13 04:31N 34°33' E 135°15'610.9
2018-Jun-13 03:57N 34°32' E 135°23'2 4.2
2018-Jun-13 03:31N 34°30' E 135°23'0 0.0
2018-Jun-13 03:01N 34°30' E 135°23'0 0.0
2018-Jun-13 02:30N 34°30' E 135°23'0 0.0
2018-Jun-13 02:00N 34°30' E 135°23'0 0.0
2018-Jun-13 01:31N 34°30' E 135°23'0 0.0
2018-Jun-13 01:01N 34°30' E 135°23'0 0.0
2018-Jun-13 00:31N 34°30' E 135°23'0 0.0
2018-Jun-13 00:01N 34°30' E 135°23'0 0.0
2018-Jun-12 23:31N 34°30' E 135°23'0 0.1
2018-Jun-12 23:00N 34°30' E 135°23'0 0.0
2018-Jun-12 22:29N 34°30' E 135°23'0 0.0
2018-Jun-12 22:00N 34°30' E 135°23'0 0.0
2018-Jun-12 21:30N 34°30' E 135°23'0 0.0
2018-Jun-12 20:56N 34°30' E 135°23'0 0.1
2018-Jun-12 19:59N 34°30' E 135°23'2 5.2
2018-Jun-12 19:30N 34°32' E 135°21'510.0
2018-Jun-12 19:01N 34°33' E 135°16'510.5
2018-Jun-12 18:30N 34°34' E 135°09'712.7
2018-Jun-12 17:59N 34°37' E 135°02'1012.0
2018-Jun-12 17:10N 34°34' E 134°50'211.7
2018-Jun-12 16:59N 34°33' E 134°48'510.9
2018-Jun-12 16:28N 34°31' E 134°42'510.8
2018-Jun-12 16:00N 34°29' E 134°36'  

Dump ship's entire track history